createdAt,value
2018-06-27T00:04:52.247Z,57.55
2018-06-27T00:09:46.881Z,57.00
2018-06-27T00:14:41.496Z,58.08
2018-06-27T00:24:26.951Z,59.94
2018-06-27T00:29:21.578Z,60.46
2018-06-27T00:34:16.142Z,60.30
2018-06-27T00:39:11.051Z,61.42
2018-06-27T00:44:05.826Z,62.95
2018-06-27T00:49:00.375Z,61.71
2018-06-27T00:53:59.966Z,62.85
2018-06-27T00:58:54.686Z,62.21
2018-06-27T01:03:49.580Z,63.72
2018-06-27T01:08:44.174Z,62.53
2018-06-27T01:13:38.803Z,63.98
2018-06-27T01:18:33.378Z,63.75
2018-06-27T01:23:27.950Z,63.83
2018-06-27T01:28:22.575Z,64.06
2018-06-27T01:33:17.157Z,64.76
2018-06-27T01:38:11.718Z,64.90
2018-06-27T01:43:06.404Z,65.10
2018-06-27T01:48:00.988Z,66.76
2018-06-27T01:52:55.595Z,65.72
2018-06-27T01:57:50.135Z,66.77
2018-06-27T02:02:44.750Z,66.57
2018-06-27T02:07:39.318Z,66.52
2018-06-27T02:12:33.898Z,66.41
2018-06-27T02:17:28.470Z,67.41
2018-06-27T02:22:23.940Z,67.42
2018-06-27T02:27:18.498Z,67.13
2018-06-27T02:32:13.042Z,66.23
2018-06-27T02:37:07.615Z,67.17
2018-06-27T02:42:02.175Z,66.84
2018-06-27T02:46:56.787Z,66.35
2018-06-27T02:51:51.383Z,67.53
2018-06-27T02:56:46.015Z,67.46
2018-06-27T03:01:40.638Z,66.94
2018-06-27T03:06:35.235Z,66.46
2018-06-27T03:11:29.782Z,67.79
2018-06-27T03:16:24.348Z,68.65
2018-06-27T03:21:19.004Z,68.25
2018-06-27T03:26:13.564Z,69.49
2018-06-27T03:31:08.284Z,67.82
2018-06-27T03:36:02.875Z,68.76
2018-06-27T03:40:57.443Z,69.51
2018-06-27T03:45:52.016Z,68.73
2018-06-27T03:50:46.555Z,70.29
2018-06-27T03:55:41.169Z,69.17
2018-06-27T04:00:35.750Z,69.92
2018-06-27T04:05:30.329Z,70.37
2018-06-27T04:10:24.875Z,71.41
2018-06-27T04:15:19.458Z,70.41
2018-06-27T04:20:14.022Z,70.52
2018-06-27T04:25:08.638Z,70.60
2018-06-27T04:30:03.877Z,69.66
2018-06-27T04:34:59.442Z,68.54
2018-06-27T04:39:54.117Z,67.72
2018-06-27T04:44:48.693Z,66.21
2018-06-27T04:49:43.323Z,64.75
2018-06-27T04:54:37.858Z,62.94
2018-06-27T04:59:32.512Z,61.53
2018-06-27T05:04:27.120Z,58.20
2018-06-27T05:09:21.691Z,57.27
2018-06-27T05:14:16.294Z,56.42
2018-06-27T05:19:10.849Z,55.78
2018-06-27T05:24:05.663Z,56.34
2018-06-27T05:29:00.205Z,56.26
2018-06-27T05:33:54.816Z,54.57
2018-06-27T05:38:49.825Z,54.58
2018-06-27T05:43:44.442Z,51.91
2018-06-27T05:48:39.022Z,52.07
2018-06-27T05:53:33.567Z,53.92
2018-06-27T05:58:28.195Z,55.19
2018-06-27T06:03:22.755Z,55.39
2018-06-27T06:08:17.408Z,53.33
2018-06-27T06:13:12.027Z,53.47
2018-06-27T06:18:06.832Z,57.92
2018-06-27T06:23:01.397Z,55.59
2018-06-27T06:27:55.951Z,54.67
2018-06-27T06:32:50.518Z,55.16
2018-06-27T06:37:45.127Z,53.06
2018-06-27T06:42:39.749Z,54.71
2018-06-27T06:47:34.317Z,52.61
2018-06-27T06:52:28.974Z,53.18
2018-06-27T06:57:23.570Z,50.46
2018-06-27T07:02:18.234Z,49.55
2018-06-27T07:07:12.926Z,50.18
2018-06-27T07:12:07.621Z,50.21
2018-06-27T07:17:02.247Z,48.99
2018-06-27T07:21:56.853Z,47.83
2018-06-27T07:26:51.509Z,45.66
2018-06-27T07:31:46.455Z,46.17
2018-06-27T07:36:41.084Z,47.46
2018-06-27T07:41:35.828Z,48.02
2018-06-27T07:46:30.482Z,46.17
2018-06-27T07:51:25.078Z,45.43
2018-06-27T07:56:19.711Z,45.11
2018-06-27T08:01:14.294Z,43.14
2018-06-27T08:06:08.538Z,44.73
2018-06-27T08:11:03.116Z,41.08
2018-06-27T08:15:57.710Z,42.63
2018-06-27T08:20:52.310Z,41.55
2018-06-27T08:25:52.845Z,42.30
2018-06-27T08:30:47.549Z,42.44
2018-06-27T08:35:42.127Z,41.04
2018-06-27T08:40:36.686Z,41.26
2018-06-27T08:45:31.264Z,42.29
2018-06-27T08:50:25.825Z,42.42
2018-06-27T08:55:20.416Z,39.30
2018-06-27T09:00:15.108Z,40.86
2018-06-27T09:05:09.690Z,41.77
2018-06-27T09:10:04.319Z,39.35
2018-06-27T09:14:58.881Z,38.00
2018-06-27T09:19:53.545Z,38.91
2018-06-27T09:24:48.189Z,39.66
2018-06-27T09:29:42.818Z,38.42
2018-06-27T09:34:37.552Z,37.40
2018-06-27T09:39:32.095Z,37.99
2018-06-27T09:44:26.683Z,35.53
2018-06-27T09:49:21.287Z,35.16
2018-06-27T09:54:15.980Z,37.49
2018-06-27T09:59:10.622Z,36.31
2018-06-27T10:04:05.317Z,35.98
2018-06-27T10:08:59.923Z,33.69
2018-06-27T10:13:54.514Z,32.85
2018-06-27T10:18:49.195Z,33.86
2018-06-27T10:23:43.803Z,33.96
2018-06-27T10:28:38.995Z,31.19
2018-06-27T10:33:33.643Z,31.88
2018-06-27T10:38:28.239Z,32.52
2018-06-27T10:43:22.812Z,33.57
2018-06-27T10:48:17.483Z,29.77
2018-06-27T10:53:12.066Z,31.65
2018-06-27T10:58:06.760Z,31.91
2018-06-27T11:03:01.371Z,31.28
2018-06-27T11:07:55.948Z,30.33
2018-06-27T11:12:50.571Z,30.81
2018-06-27T11:17:45.190Z,30.98
2018-06-27T11:22:39.778Z,30.55
2018-06-27T11:27:34.348Z,29.96
2018-06-27T11:32:28.950Z,32.29
2018-06-27T11:37:23.589Z,30.32
2018-06-27T11:42:18.166Z,29.17
2018-06-27T11:47:12.788Z,30.09
2018-06-27T11:52:07.383Z,28.77
2018-06-27T11:57:01.999Z,30.26
2018-06-27T12:01:56.935Z,31.51
2018-06-27T12:06:51.578Z,29.58
2018-06-27T12:11:46.178Z,29.25
2018-06-27T12:16:40.462Z,30.81
2018-06-27T12:21:35.129Z,33.04
2018-06-27T12:26:29.819Z,33.06
2018-06-27T12:31:24.938Z,31.55
2018-06-27T12:36:19.651Z,32.91
2018-06-27T12:41:14.291Z,31.42
2018-06-27T12:46:08.959Z,31.78
2018-06-27T12:51:03.695Z,32.86
2018-06-27T12:55:58.280Z,33.42
2018-06-27T13:00:52.911Z,31.21
2018-06-27T13:05:47.554Z,31.64
2018-06-27T13:10:42.269Z,30.37
2018-06-27T13:15:36.883Z,32.20
2018-06-27T13:20:31.510Z,31.65
2018-06-27T13:25:26.125Z,33.14
2018-06-27T13:30:20.718Z,32.67
2018-06-27T13:35:15.382Z,36.59
2018-06-27T13:40:10.007Z,36.65
2018-06-27T13:45:04.852Z,37.40
2018-06-27T13:49:59.563Z,36.11
2018-06-27T13:54:57.219Z,36.09
2018-06-27T13:59:51.868Z,39.36
2018-06-27T14:04:46.515Z,35.68
2018-06-27T14:09:41.371Z,38.67
2018-06-27T14:14:36.014Z,38.06
2018-06-27T14:19:30.784Z,39.20
2018-06-27T14:24:25.572Z,38.10
2018-06-27T14:29:20.164Z,35.49
2018-06-27T14:34:14.797Z,34.99
2018-06-27T14:39:10.458Z,34.62
2018-06-27T14:44:05.211Z,34.86
2018-06-27T14:48:59.835Z,37.32
2018-06-27T14:53:54.440Z,36.20
2018-06-27T14:58:49.036Z,38.32
2018-06-27T15:03:43.776Z,37.86
2018-06-27T15:08:38.479Z,37.35
2018-06-27T15:13:33.093Z,36.78
2018-06-27T15:18:27.670Z,42.88
2018-06-27T15:23:22.328Z,37.01
2018-06-27T15:28:16.921Z,37.99
2018-06-27T15:33:11.531Z,37.90
2018-06-27T15:38:06.491Z,38.01
2018-06-27T15:43:01.354Z,37.77
2018-06-27T15:47:56.019Z,38.22
2018-06-27T15:52:50.708Z,39.08
2018-06-27T15:57:45.413Z,36.34
2018-06-27T16:02:40.011Z,37.51
2018-06-27T16:07:34.686Z,38.20
2018-06-27T16:12:29.402Z,37.62
2018-06-27T16:17:24.386Z,36.54
2018-06-27T16:22:18.788Z,35.85
2018-06-27T16:27:13.514Z,38.69
2018-06-27T16:32:08.133Z,36.18
2018-06-27T16:37:02.760Z,35.07
2018-06-27T16:41:57.458Z,32.47
2018-06-27T16:46:52.259Z,32.96
2018-06-27T16:51:46.934Z,33.73
2018-06-27T16:56:41.632Z,33.10
2018-06-27T17:01:36.291Z,34.85
2018-06-27T17:06:30.994Z,31.07
2018-06-27T17:11:25.619Z,31.32
2018-06-27T17:16:20.295Z,32.96
2018-06-27T17:21:15.036Z,29.33
2018-06-27T17:26:09.714Z,31.41
2018-06-27T17:31:04.575Z,31.96
2018-06-27T17:35:59.206Z,31.14
2018-06-27T17:40:53.859Z,29.64
2018-06-27T17:45:48.646Z,32.68
2018-06-27T17:50:43.271Z,31.45
2018-06-27T17:55:37.930Z,30.34
2018-06-27T18:00:32.540Z,30.40
2018-06-27T18:05:27.159Z,30.69
2018-06-27T18:10:21.730Z,30.05
2018-06-27T18:15:16.371Z,30.57
2018-06-27T18:20:10.999Z,31.95
2018-06-27T18:25:06.359Z,30.03
2018-06-27T18:30:00.980Z,34.41
2018-06-27T18:34:55.763Z,34.73
2018-06-27T18:39:50.383Z,35.89
2018-06-27T18:44:44.970Z,37.23
2018-06-27T18:49:40.548Z,38.13
2018-06-27T18:54:35.198Z,36.82
2018-06-27T18:59:29.859Z,38.08
2018-06-27T19:04:24.489Z,39.16
2018-06-27T19:09:19.206Z,39.98
2018-06-27T19:14:13.867Z,39.38
2018-06-27T19:19:08.502Z,39.22
2018-06-27T19:24:03.098Z,40.36
2018-06-27T19:28:57.747Z,39.60
2018-06-27T19:33:52.453Z,40.13
2018-06-27T19:38:47.120Z,39.98
2018-06-27T19:43:41.728Z,40.45
2018-06-27T19:48:36.345Z,39.74
2018-06-27T19:53:31.020Z,39.67
2018-06-27T19:58:25.627Z,39.06
2018-06-27T20:03:20.274Z,40.22
2018-06-27T20:08:15.116Z,40.68
2018-06-27T20:13:09.749Z,41.50
2018-06-27T20:18:04.398Z,43.06
2018-06-27T20:22:59.098Z,41.52
2018-06-27T20:27:53.456Z,41.86
2018-06-27T20:32:48.116Z,41.04
2018-06-27T20:37:42.751Z,40.27
2018-06-27T20:42:37.412Z,38.72
2018-06-27T20:47:32.083Z,41.50
2018-06-27T20:52:26.717Z,40.62
2018-06-27T20:57:21.327Z,40.38
2018-06-27T21:02:16.051Z,41.02
2018-06-27T21:07:10.651Z,41.05
2018-06-27T21:12:05.483Z,40.84
2018-06-27T21:17:00.145Z,39.81
2018-06-27T21:21:54.819Z,41.45
2018-06-27T21:26:49.508Z,42.15
2018-06-27T21:31:44.143Z,42.35
2018-06-27T21:36:38.805Z,41.16
2018-06-27T21:41:33.415Z,41.27
2018-06-27T21:46:28.043Z,41.46
2018-06-27T21:51:22.630Z,41.70
2018-06-27T21:56:17.266Z,41.92
2018-06-27T22:01:11.940Z,41.68
2018-06-27T22:06:06.754Z,41.57
2018-06-27T22:11:01.372Z,42.79
2018-06-27T22:15:56.010Z,42.75
2018-06-27T22:20:50.593Z,42.71
2018-06-27T22:25:45.208Z,42.48
2018-06-27T22:30:40.006Z,44.45
2018-06-27T22:35:34.625Z,44.38
2018-06-27T22:40:29.241Z,44.78
2018-06-27T22:45:23.826Z,45.08
2018-06-27T22:50:18.442Z,45.15
2018-06-27T22:55:13.071Z,46.98
2018-06-27T23:00:08.313Z,46.73
2018-06-27T23:05:02.865Z,47.14
2018-06-27T23:09:57.489Z,48.16
2018-06-27T23:14:52.088Z,47.91
2018-06-27T23:19:46.688Z,48.57
2018-06-27T23:24:41.270Z,48.86
2018-06-27T23:29:35.834Z,48.05
2018-06-27T23:34:30.434Z,47.63
2018-06-27T23:39:25.168Z,48.18
2018-06-27T23:44:19.920Z,48.24
2018-06-27T23:49:14.586Z,48.28
2018-06-27T23:54:09.255Z,49.43
2018-06-27T23:59:03.888Z,48.05
